AVA8560 SKPE-SKBO
Flight info
| Callsign | AVA8560 |
|---|---|
| Flight time | 0h 27m |
| Altitude | 19000 |
| Route | TOLIM1D TOLIM TOLIM5E |
| Aircraft | A319/M-SDE3FGHIRWY/LB1 |
Departure
| Time | 2026-04-30 21:01 |
|---|---|
| Airport | Matecaña International Airport (SKPE) |
Arrival
| Time | 2026-04-30 21:28 |
|---|---|
| Airport | El Dorado International Airport (SKBO) |
| Time | Latitude | Longitude | Altitude | Speed | Heading |
|---|---|---|---|---|---|
| 2026-04-30 20:39 | 4.81490 | -75.73791 | 4399 ft | 0 kts | 342° |
| 2026-04-30 20:55 | 4.81472 | -75.73786 | 4399 ft | 0 kts | 346° |
| 2026-04-30 20:55 | 4.81454 | -75.73782 | 4399 ft | 4 kts | 358° |
| 2026-04-30 20:55 | 4.81431 | -75.73787 | 4399 ft | 4 kts | 52° |
| 2026-04-30 20:56 | 4.81425 | -75.73801 | 4398 ft | 1 kts | 72° |
| 2026-04-30 20:58 | 4.81429 | -75.73788 | 4399 ft | 4 kts | 71° |
| 2026-04-30 20:58 | 4.81443 | -75.73746 | 4400 ft | 9 kts | 71° |
| 2026-04-30 20:58 | 4.81468 | -75.73671 | 4403 ft | 14 kts | 72° |
| 2026-04-30 20:58 | 4.81501 | -75.73566 | 4407 ft | 18 kts | 72° |
| 2026-04-30 20:59 | 4.81451 | -75.73396 | 4412 ft | 13 kts | 72° |
| 2026-04-30 20:59 | 4.81482 | -75.73307 | 4415 ft | 15 kts | 71° |
| 2026-04-30 21:00 | 4.81573 | -75.73083 | 4423 ft | 20 kts | 45° |
| 2026-04-30 21:00 | 4.81500 | -75.73241 | 4418 ft | 63 kts | 252° |
| 2026-04-30 21:01 | 4.80935 | -75.74993 | 4753 ft | 165 kts | 252° |
| 2026-04-30 21:01 | 4.80590 | -75.76079 | 5599 ft | 161 kts | 253° |
| 2026-04-30 21:01 | 4.79903 | -75.78172 | 6860 ft | 158 kts | 250° |
| 2026-04-30 21:02 | 4.79564 | -75.79217 | 7382 ft | 156 kts | 252° |
| 2026-04-30 21:02 | 4.79220 | -75.80270 | 7784 ft | 167 kts | 252° |
| 2026-04-30 21:02 | 4.78797 | -75.81432 | 8016 ft | 189 kts | 241° |
| 2026-04-30 21:02 | 4.77745 | -75.82290 | 8206 ft | 210 kts | 196° |
| 2026-04-30 21:03 | 4.76228 | -75.82235 | 8373 ft | 233 kts | 165° |
| 2026-04-30 21:03 | 4.74595 | -75.81751 | 8816 ft | 246 kts | 161° |
| 2026-04-30 21:03 | 4.73071 | -75.81117 | 9943 ft | 234 kts | 147° |
| 2026-04-30 21:03 | 4.71729 | -75.80216 | 10763 ft | 231 kts | 143° |
| 2026-04-30 21:04 | 4.70446 | -75.79243 | 11515 ft | 231 kts | 139° |
| 2026-04-30 21:04 | 4.69222 | -75.78194 | 12245 ft | 232 kts | 137° |
| 2026-04-30 21:04 | 4.66801 | -75.76074 | 13805 ft | 232 kts | 137° |
| 2026-04-30 21:05 | 4.65579 | -75.75002 | 14444 ft | 235 kts | 137° |
| 2026-04-30 21:05 | 4.64341 | -75.73914 | 15033 ft | 239 kts | 137° |
| 2026-04-30 21:05 | 4.63085 | -75.72812 | 15664 ft | 242 kts | 137° |
| 2026-04-30 21:05 | 4.61773 | -75.71631 | 15862 ft | 265 kts | 136° |
| 2026-04-30 21:06 | 4.60843 | -75.70783 | 15988 ft | 281 kts | 136° |
| 2026-04-30 21:06 | 4.59341 | -75.69409 | 16161 ft | 304 kts | 136° |
| 2026-04-30 21:06 | 4.57716 | -75.67927 | 16301 ft | 327 kts | 136° |
| 2026-04-30 21:06 | 4.55973 | -75.66341 | 16425 ft | 349 kts | 136° |
| 2026-04-30 21:07 | 4.54135 | -75.64675 | 16723 ft | 362 kts | 136° |
| 2026-04-30 21:07 | 4.52256 | -75.62974 | 17286 ft | 367 kts | 136° |
| 2026-04-30 21:07 | 4.50350 | -75.61249 | 17908 ft | 371 kts | 136° |
| 2026-04-30 21:07 | 4.48428 | -75.59510 | 18549 ft | 373 kts | 136° |
| 2026-04-30 21:08 | 4.46488 | -75.57755 | 18841 ft | 377 kts | 136° |
| 2026-04-30 21:08 | 4.44543 | -75.55989 | 18930 ft | 381 kts | 136° |
| 2026-04-30 21:08 | 4.42571 | -75.54173 | 18952 ft | 387 kts | 133° |
| 2026-04-30 21:08 | 4.40973 | -75.52007 | 18962 ft | 387 kts | 117° |
| 2026-04-30 21:09 | 4.40090 | -75.49471 | 18955 ft | 387 kts | 100° |
| 2026-04-30 21:09 | 4.39999 | -75.46779 | 18964 ft | 389 kts | 83° |
| 2026-04-30 21:09 | 4.40708 | -75.44163 | 18960 ft | 392 kts | 67° |
| 2026-04-30 21:09 | 4.41991 | -75.41742 | 18949 ft | 394 kts | 62° |
| 2026-04-30 21:10 | 4.43328 | -75.39334 | 18962 ft | 396 kts | 62° |
| 2026-04-30 21:10 | 4.44670 | -75.36923 | 18950 ft | 396 kts | 62° |
| 2026-04-30 21:10 | 4.46011 | -75.34515 | 18915 ft | 395 kts | 62° |
| 2026-04-30 21:10 | 4.47351 | -75.32110 | 18909 ft | 395 kts | 62° |
| 2026-04-30 21:11 | 4.48690 | -75.29707 | 18901 ft | 395 kts | 62° |
| 2026-04-30 21:11 | 4.50028 | -75.27305 | 18894 ft | 395 kts | 62° |
| 2026-04-30 21:11 | 4.51365 | -75.24901 | 18889 ft | 395 kts | 63° |
| 2026-04-30 21:11 | 4.52702 | -75.22494 | 18885 ft | 395 kts | 63° |
| 2026-04-30 21:12 | 4.54040 | -75.20086 | 18876 ft | 395 kts | 62° |
| 2026-04-30 21:12 | 4.55361 | -75.17713 | 18877 ft | 395 kts | 62° |
| 2026-04-30 21:12 | 4.56702 | -75.15306 | 18881 ft | 395 kts | 62° |
| 2026-04-30 21:12 | 4.58042 | -75.12901 | 18891 ft | 395 kts | 62° |
| 2026-04-30 21:13 | 4.59380 | -75.10491 | 18892 ft | 395 kts | 63° |
| 2026-04-30 21:13 | 4.60713 | -75.08083 | 18897 ft | 395 kts | 63° |
| 2026-04-30 21:13 | 4.62047 | -75.05674 | 18877 ft | 395 kts | 63° |
| 2026-04-30 21:13 | 4.63382 | -75.03264 | 18869 ft | 396 kts | 63° |
| 2026-04-30 21:14 | 4.64721 | -75.00849 | 18867 ft | 396 kts | 63° |
| 2026-04-30 21:14 | 4.66063 | -74.98434 | 18871 ft | 397 kts | 63° |
| 2026-04-30 21:14 | 4.67409 | -74.96016 | 18871 ft | 397 kts | 63° |
| 2026-04-30 21:14 | 4.68757 | -74.93594 | 18871 ft | 397 kts | 63° |
| 2026-04-30 21:15 | 4.70101 | -74.91175 | 18872 ft | 398 kts | 63° |
| 2026-04-30 21:15 | 4.71444 | -74.88751 | 18885 ft | 398 kts | 63° |
| 2026-04-30 21:15 | 4.72776 | -74.86349 | 18888 ft | 387 kts | 63° |
| 2026-04-30 21:15 | 4.74055 | -74.84051 | 18890 ft | 369 kts | 63° |
| 2026-04-30 21:16 | 4.75288 | -74.81833 | 18895 ft | 361 kts | 63° |
| 2026-04-30 21:16 | 4.76504 | -74.79637 | 18893 ft | 359 kts | 63° |
| 2026-04-30 21:16 | 4.77501 | -74.77351 | 18851 ft | 357 kts | 71° |
| 2026-04-30 21:16 | 4.78393 | -74.75030 | 18848 ft | 357 kts | 71° |
| 2026-04-30 21:17 | 4.79285 | -74.72713 | 18854 ft | 356 kts | 71° |
| 2026-04-30 21:17 | 4.80172 | -74.70410 | 18617 ft | 352 kts | 71° |
| 2026-04-30 21:17 | 4.81051 | -74.68128 | 18210 ft | 350 kts | 70° |
| 2026-04-30 21:17 | 4.81923 | -74.65865 | 17771 ft | 347 kts | 71° |
| 2026-04-30 21:18 | 4.82793 | -74.63613 | 17291 ft | 345 kts | 70° |
| 2026-04-30 21:18 | 4.83994 | -74.61553 | 16998 ft | 343 kts | 50° |
| 2026-04-30 21:18 | 4.85860 | -74.60131 | 16865 ft | 336 kts | 28° |
| 2026-04-30 21:18 | 4.88027 | -74.59292 | 16577 ft | 332 kts | 22° |
| 2026-04-30 21:19 | 4.90204 | -74.58549 | 16228 ft | 329 kts | 21° |
| 2026-04-30 21:19 | 4.92348 | -74.57828 | 16057 ft | 320 kts | 21° |
| 2026-04-30 21:19 | 4.94348 | -74.56937 | 15761 ft | 311 kts | 37° |
| 2026-04-30 21:19 | 4.95889 | -74.55483 | 15466 ft | 301 kts | 57° |
| 2026-04-30 21:20 | 4.96818 | -74.53635 | 15149 ft | 295 kts | 76° |
| 2026-04-30 21:20 | 4.97071 | -74.51616 | 14849 ft | 291 kts | 94° |
| 2026-04-30 21:20 | 4.96660 | -74.49645 | 14549 ft | 289 kts | 112° |
| 2026-04-30 21:20 | 4.95674 | -74.47934 | 14328 ft | 285 kts | 124° |
| 2026-04-30 21:21 | 4.94559 | -74.46330 | 14116 ft | 277 kts | 124° |
| 2026-04-30 21:21 | 4.93465 | -74.44750 | 13812 ft | 274 kts | 124° |
| 2026-04-30 21:21 | 4.91270 | -74.41659 | 12958 ft | 270 kts | 131° |
| 2026-04-30 21:22 | 4.89883 | -74.40400 | 12491 ft | 268 kts | 139° |
| 2026-04-30 21:22 | 4.85865 | -74.36579 | 11769 ft | 255 kts | 125° |
| 2026-04-30 21:23 | 4.84858 | -74.35171 | 11821 ft | 242 kts | 126° |
| 2026-04-30 21:23 | 4.83874 | -74.33856 | 11846 ft | 229 kts | 127° |
| 2026-04-30 21:23 | 4.82066 | -74.31471 | 11694 ft | 205 kts | 127° |
| 2026-04-30 21:24 | 4.81223 | -74.30357 | 11470 ft | 196 kts | 127° |
| 2026-04-30 21:24 | 4.80414 | -74.29288 | 11236 ft | 189 kts | 127° |
| 2026-04-30 21:24 | 4.79631 | -74.28254 | 11037 ft | 183 kts | 127° |
| 2026-04-30 21:24 | 4.78891 | -74.27276 | 10832 ft | 168 kts | 127° |
| 2026-04-30 21:25 | 4.77562 | -74.25520 | 10470 ft | 154 kts | 127° |
| 2026-04-30 21:25 | 4.76920 | -74.24673 | 10302 ft | 151 kts | 128° |
| 2026-04-30 21:25 | 4.76288 | -74.23837 | 10122 ft | 152 kts | 126° |
| 2026-04-30 21:26 | 4.75044 | -74.22195 | 9768 ft | 145 kts | 126° |
| 2026-04-30 21:26 | 4.74437 | -74.21393 | 9616 ft | 145 kts | 126° |
| 2026-04-30 21:27 | 4.73234 | -74.19783 | 9228 ft | 143 kts | 127° |
| 2026-04-30 21:27 | 4.72639 | -74.18996 | 9020 ft | 142 kts | 129° |
| 2026-04-30 21:27 | 4.72035 | -74.18197 | 8823 ft | 144 kts | 129° |
| 2026-04-30 21:28 | 4.70839 | -74.16627 | 8381 ft | 139 kts | 128° |
| 2026-04-30 21:28 | 4.70339 | -74.15969 | 8374 ft | 95 kts | 127° |
| 2026-04-30 21:28 | 4.69821 | -74.15282 | 8374 ft | 45 kts | 126° |
| 2026-04-30 21:29 | 4.69719 | -74.15021 | 8373 ft | 33 kts | 97° |
| 2026-04-30 21:29 | 4.69790 | -74.14633 | 8373 ft | 17 kts | 127° |
| 2026-04-30 21:30 | 4.69783 | -74.14535 | 8371 ft | 2 kts | 39° |
| 2026-04-30 21:31 | 4.69785 | -74.14534 | 8371 ft | 0 kts | 39° |